sensor_id;sensor_type;location;lat;lon;timestamp;temperature;humidity
909;DHT22;441;51.192;6.788;2023-02-11T00:01:57;20.20;48.70
909;DHT22;441;51.192;6.788;2023-02-11T00:04:26;20.20;48.80
909;DHT22;441;51.192;6.788;2023-02-11T00:06:53;20.20;48.80
909;DHT22;441;51.192;6.788;2023-02-11T00:09:20;20.20;48.80
909;DHT22;441;51.192;6.788;2023-02-11T00:11:47;20.20;48.90
909;DHT22;441;51.192;6.788;2023-02-11T00:14:14;20.20;48.90
909;DHT22;441;51.192;6.788;2023-02-11T00:16:41;20.20;48.90
909;DHT22;441;51.192;6.788;2023-02-11T00:19:08;20.10;48.90
909;DHT22;441;51.192;6.788;2023-02-11T00:21:37;20.10;48.90
909;DHT22;441;51.192;6.788;2023-02-11T00:24:04;20.10;48.90
909;DHT22;441;51.192;6.788;2023-02-11T00:26:32;20.10;49.00
909;DHT22;441;51.192;6.788;2023-02-11T00:29:01;20.10;49.00
909;DHT22;441;51.192;6.788;2023-02-11T00:31:28;20.10;49.00
909;DHT22;441;51.192;6.788;2023-02-11T00:33:55;20.00;49.00
909;DHT22;441;51.192;6.788;2023-02-11T00:36:24;20.00;49.00
909;DHT22;441;51.192;6.788;2023-02-11T00:38:53;20.10;49.20
909;DHT22;441;51.192;6.788;2023-02-11T00:41:21;20.00;49.20
909;DHT22;441;51.192;6.788;2023-02-11T00:43:49;20.00;49.10
909;DHT22;441;51.192;6.788;2023-02-11T00:46:16;20.00;49.20
909;DHT22;441;51.192;6.788;2023-02-11T00:48:43;20.00;49.20
909;DHT22;441;51.192;6.788;2023-02-11T00:51:11;20.00;49.20
909;DHT22;441;51.192;6.788;2023-02-11T00:53:38;20.00;49.20
909;DHT22;441;51.192;6.788;2023-02-11T00:56:06;20.00;49.30
909;DHT22;441;51.192;6.788;2023-02-11T00:58:33;19.90;49.30
909;DHT22;441;51.192;6.788;2023-02-11T01:01:00;19.90;49.30
909;DHT22;441;51.192;6.788;2023-02-11T01:03:27;19.90;49.30
909;DHT22;441;51.192;6.788;2023-02-11T01:05:54;19.90;49.30
909;DHT22;441;51.192;6.788;2023-02-11T01:08:21;19.90;49.30
909;DHT22;441;51.192;6.788;2023-02-11T01:10:53;19.90;49.40
909;DHT22;441;51.192;6.788;2023-02-11T01:13:22;19.90;49.40
909;DHT22;441;51.192;6.788;2023-02-11T01:15:49;19.90;49.40
909;DHT22;441;51.192;6.788;2023-02-11T01:18:16;19.80;49.40
909;DHT22;441;51.192;6.788;2023-02-11T01:20:42;19.80;49.40
909;DHT22;441;51.192;6.788;2023-02-11T01:23:09;19.80;49.40
909;DHT22;441;51.192;6.788;2023-02-11T01:25:36;19.80;49.40
909;DHT22;441;51.192;6.788;2023-02-11T01:28:03;19.80;49.40
909;DHT22;441;51.192;6.788;2023-02-11T01:30:31;19.80;49.50
909;DHT22;441;51.192;6.788;2023-02-11T01:32:58;19.80;49.40
909;DHT22;441;51.192;6.788;2023-02-11T01:35:25;19.80;49.50
909;DHT22;441;51.192;6.788;2023-02-11T01:37:52;19.80;49.50
909;DHT22;441;51.192;6.788;2023-02-11T01:40:19;19.80;49.60
909;DHT22;441;51.192;6.788;2023-02-11T01:42:45;19.80;49.60
909;DHT22;441;51.192;6.788;2023-02-11T01:48:22;19.80;49.60
909;DHT22;441;51.192;6.788;2023-02-11T01:50:53;19.80;49.60
909;DHT22;441;51.192;6.788;2023-02-11T01:53:22;19.80;49.60
909;DHT22;441;51.192;6.788;2023-02-11T01:56:07;19.80;49.60
909;DHT22;441;51.192;6.788;2023-02-11T01:58:55;19.70;49.50
909;DHT22;441;51.192;6.788;2023-02-11T02:01:26;19.70;49.60
909;DHT22;441;51.192;6.788;2023-02-11T02:03:56;19.70;49.60
909;DHT22;441;51.192;6.788;2023-02-11T02:06:31;19.70;49.60
909;DHT22;441;51.192;6.788;2023-02-11T02:09:02;19.70;49.60
909;DHT22;441;51.192;6.788;2023-02-11T02:11:29;19.70;49.60
909;DHT22;441;51.192;6.788;2023-02-11T02:13:56;19.70;49.60
909;DHT22;441;51.192;6.788;2023-02-11T02:16:27;19.70;49.70
909;DHT22;441;51.192;6.788;2023-02-11T02:19:06;19.70;49.70
909;DHT22;441;51.192;6.788;2023-02-11T02:21:57;19.60;49.60
909;DHT22;441;51.192;6.788;2023-02-11T02:25:10;19.60;49.60
909;DHT22;441;51.192;6.788;2023-02-11T02:27:47;19.60;49.70
909;DHT22;441;51.192;6.788;2023-02-11T02:31:06;19.60;49.80
909;DHT22;441;51.192;6.788;2023-02-11T02:33:44;19.60;49.80
909;DHT22;441;51.192;6.788;2023-02-11T02:36:17;19.60;49.80
909;DHT22;441;51.192;6.788;2023-02-11T02:38:51;19.60;49.80
909;DHT22;441;51.192;6.788;2023-02-11T02:41:22;19.60;49.90
909;DHT22;441;51.192;6.788;2023-02-11T02:43:50;19.60;49.80
909;DHT22;441;51.192;6.788;2023-02-11T02:46:19;19.50;49.80
909;DHT22;441;51.192;6.788;2023-02-11T02:48:49;19.60;49.90
909;DHT22;441;51.192;6.788;2023-02-11T02:51:31;19.60;49.90
909;DHT22;441;51.192;6.788;2023-02-11T02:54:15;19.60;49.90
909;DHT22;441;51.192;6.788;2023-02-11T02:56:49;19.60;49.90
909;DHT22;441;51.192;6.788;2023-02-11T02:59:30;19.60;49.90
909;DHT22;441;51.192;6.788;2023-02-11T03:02:05;19.60;49.90
909;DHT22;441;51.192;6.788;2023-02-11T03:04:45;19.50;49.90
909;DHT22;441;51.192;6.788;2023-02-11T03:07:20;19.60;49.90
909;DHT22;441;51.192;6.788;2023-02-11T03:09:54;19.50;49.90
909;DHT22;441;51.192;6.788;2023-02-11T03:12:23;19.60;50.00
909;DHT22;441;51.192;6.788;2023-02-11T03:14:52;19.50;49.90
909;DHT22;441;51.192;6.788;2023-02-11T03:17:19;19.50;49.90
909;DHT22;441;51.192;6.788;2023-02-11T03:19:49;19.60;50.00
909;DHT22;441;51.192;6.788;2023-02-11T03:22:21;19.50;49.90
909;DHT22;441;51.192;6.788;2023-02-11T03:24:50;19.50;49.90
909;DHT22;441;51.192;6.788;2023-02-11T03:27:20;19.50;49.90
909;DHT22;441;51.192;6.788;2023-02-11T03:29:52;19.50;49.90
909;DHT22;441;51.192;6.788;2023-02-11T03:32:25;19.50;49.90
909;DHT22;441;51.192;6.788;2023-02-11T03:34:57;19.50;49.90
909;DHT22;441;51.192;6.788;2023-02-11T03:37:27;19.50;49.90
909;DHT22;441;51.192;6.788;2023-02-11T03:40:00;19.50;49.90
909;DHT22;441;51.192;6.788;2023-02-11T03:42:32;19.50;49.90
909;DHT22;441;51.192;6.788;2023-02-11T03:45:04;19.50;50.50
909;DHT22;441;51.192;6.788;2023-02-11T03:47:34;19.40;49.90
909;DHT22;441;51.192;6.788;2023-02-11T03:50:06;19.40;49.90
909;DHT22;441;51.192;6.788;2023-02-11T03:52:36;19.40;49.80
909;DHT22;441;51.192;6.788;2023-02-11T03:55:08;19.40;49.80
909;DHT22;441;51.192;6.788;2023-02-11T03:57:36;19.40;49.80
909;DHT22;441;51.192;6.788;2023-02-11T04:00:05;19.40;49.90
909;DHT22;441;51.192;6.788;2023-02-11T04:02:34;19.40;49.90
909;DHT22;441;51.192;6.788;2023-02-11T04:05:03;19.40;49.90
909;DHT22;441;51.192;6.788;2023-02-11T04:07:31;19.40;49.80
909;DHT22;441;51.192;6.788;2023-02-11T04:09:58;19.40;49.80
909;DHT22;441;51.192;6.788;2023-02-11T04:12:25;19.40;50.30
909;DHT22;441;51.192;6.788;2023-02-11T04:14:51;19.40;49.70
909;DHT22;441;51.192;6.788;2023-02-11T04:17:18;19.40;49.80
909;DHT22;441;51.192;6.788;2023-02-11T04:19:45;19.40;49.80
909;DHT22;441;51.192;6.788;2023-02-11T04:22:13;19.40;49.90
909;DHT22;441;51.192;6.788;2023-02-11T04:24:40;19.40;49.90
909;DHT22;441;51.192;6.788;2023-02-11T04:27:08;19.40;49.90
909;DHT22;441;51.192;6.788;2023-02-11T04:29:35;19.40;49.90
909;DHT22;441;51.192;6.788;2023-02-11T04:32:02;19.40;50.00
909;DHT22;441;51.192;6.788;2023-02-11T04:34:29;19.40;50.00
909;DHT22;441;51.192;6.788;2023-02-11T04:36:56;19.40;50.00
909;DHT22;441;51.192;6.788;2023-02-11T04:39:25;19.40;50.00
909;DHT22;441;51.192;6.788;2023-02-11T04:41:51;19.40;50.10
909;DHT22;441;51.192;6.788;2023-02-11T04:44:18;19.40;50.10
909;DHT22;441;51.192;6.788;2023-02-11T04:46:45;19.40;50.10
909;DHT22;441;51.192;6.788;2023-02-11T04:49:12;19.40;50.10
909;DHT22;441;51.192;6.788;2023-02-11T04:51:39;19.40;50.10
909;DHT22;441;51.192;6.788;2023-02-11T04:54:06;19.40;50.10
909;DHT22;441;51.192;6.788;2023-02-11T04:56:35;19.40;50.00
909;DHT22;441;51.192;6.788;2023-02-11T04:59:03;19.40;49.90
909;DHT22;441;51.192;6.788;2023-02-11T05:01:30;19.40;49.90
909;DHT22;441;51.192;6.788;2023-02-11T05:03:57;19.40;49.90
909;DHT22;441;51.192;6.788;2023-02-11T05:06:24;19.40;49.90
909;DHT22;441;51.192;6.788;2023-02-11T05:08:51;19.40;49.90
909;DHT22;441;51.192;6.788;2023-02-11T05:11:20;19.40;50.00
909;DHT22;441;51.192;6.788;2023-02-11T05:13:48;19.40;49.80
909;DHT22;441;51.192;6.788;2023-02-11T05:16:16;19.40;49.80
909;DHT22;441;51.192;6.788;2023-02-11T05:18:43;19.40;49.70
909;DHT22;441;51.192;6.788;2023-02-11T05:21:12;19.40;49.80
909;DHT22;441;51.192;6.788;2023-02-11T05:23:40;19.40;50.10
909;DHT22;441;51.192;6.788;2023-02-11T05:26:07;19.40;50.40
909;DHT22;441;51.192;6.788;2023-02-11T05:28:34;19.40;50.50
909;DHT22;441;51.192;6.788;2023-02-11T05:31:03;19.50;50.70
909;DHT22;441;51.192;6.788;2023-02-11T05:33:30;19.50;50.80
909;DHT22;441;51.192;6.788;2023-02-11T05:35:58;19.60;50.90
909;DHT22;441;51.192;6.788;2023-02-11T05:38:25;19.60;50.90
909;DHT22;441;51.192;6.788;2023-02-11T05:40:52;19.70;51.00
909;DHT22;441;51.192;6.788;2023-02-11T05:43:19;19.70;50.90
909;DHT22;441;51.192;6.788;2023-02-11T05:45:46;19.70;50.70
909;DHT22;441;51.192;6.788;2023-02-11T05:48:14;19.70;50.60
909;DHT22;441;51.192;6.788;2023-02-11T05:50:41;19.80;50.90
909;DHT22;441;51.192;6.788;2023-02-11T05:53:08;19.80;50.80
909;DHT22;441;51.192;6.788;2023-02-11T05:55:35;19.80;50.80
909;DHT22;441;51.192;6.788;2023-02-11T05:58:02;19.80;50.80
909;DHT22;441;51.192;6.788;2023-02-11T06:00:29;19.90;50.80
909;DHT22;441;51.192;6.788;2023-02-11T06:02:56;19.80;50.70
909;DHT22;441;51.192;6.788;2023-02-11T06:05:24;19.90;50.70
909;DHT22;441;51.192;6.788;2023-02-11T06:07:51;19.90;50.70
909;DHT22;441;51.192;6.788;2023-02-11T06:10:18;19.90;50.60
909;DHT22;441;51.192;6.788;2023-02-11T06:12:44;20.00;50.70
909;DHT22;441;51.192;6.788;2023-02-11T06:15:11;20.00;50.60
909;DHT22;441;51.192;6.788;2023-02-11T06:17:38;20.00;50.60
909;DHT22;441;51.192;6.788;2023-02-11T06:20:06;20.00;50.50
909;DHT22;441;51.192;6.788;2023-02-11T06:22:36;20.00;50.50
909;DHT22;441;51.192;6.788;2023-02-11T06:25:03;20.10;50.50
909;DHT22;441;51.192;6.788;2023-02-11T06:27:30;20.10;50.50
909;DHT22;441;51.192;6.788;2023-02-11T06:29:57;20.00;50.40
909;DHT22;441;51.192;6.788;2023-02-11T06:32:25;20.00;50.40
909;DHT22;441;51.192;6.788;2023-02-11T06:34:52;20.10;50.40
909;DHT22;441;51.192;6.788;2023-02-11T06:37:19;20.10;50.40
909;DHT22;441;51.192;6.788;2023-02-11T06:39:47;20.10;50.30
909;DHT22;441;51.192;6.788;2023-02-11T06:42:14;20.10;50.00
909;DHT22;441;51.192;6.788;2023-02-11T06:44:41;20.10;50.10
909;DHT22;441;51.192;6.788;2023-02-11T06:47:09;20.10;50.10
909;DHT22;441;51.192;6.788;2023-02-11T06:49:35;20.20;50.20
909;DHT22;441;51.192;6.788;2023-02-11T06:52:02;20.10;50.10
909;DHT22;441;51.192;6.788;2023-02-11T06:54:29;20.20;50.20
909;DHT22;441;51.192;6.788;2023-02-11T06:56:57;20.20;50.10
909;DHT22;441;51.192;6.788;2023-02-11T06:59:24;20.20;50.10
909;DHT22;441;51.192;6.788;2023-02-11T07:01:51;20.20;50.20
909;DHT22;441;51.192;6.788;2023-02-11T07:04:18;20.30;50.20
909;DHT22;441;51.192;6.788;2023-02-11T07:06:45;20.30;50.00
909;DHT22;441;51.192;6.788;2023-02-11T07:09:12;20.40;51.00
909;DHT22;441;51.192;6.788;2023-02-11T07:11:39;20.40;50.70
909;DHT22;441;51.192;6.788;2023-02-11T07:14:07;20.40;50.00
909;DHT22;441;51.192;6.788;2023-02-11T07:16:34;20.50;49.80
909;DHT22;441;51.192;6.788;2023-02-11T07:19:01;20.60;49.60
909;DHT22;441;51.192;6.788;2023-02-11T07:21:28;20.70;49.60
909;DHT22;441;51.192;6.788;2023-02-11T07:23:55;20.70;49.50
909;DHT22;441;51.192;6.788;2023-02-11T07:26:23;20.80;50.70
909;DHT22;441;51.192;6.788;2023-02-11T07:28:50;20.90;50.90
909;DHT22;441;51.192;6.788;2023-02-11T07:31:21;21.00;50.20
909;DHT22;441;51.192;6.788;2023-02-11T07:33:50;21.00;49.60
909;DHT22;441;51.192;6.788;2023-02-11T07:36:17;21.10;49.40
909;DHT22;441;51.192;6.788;2023-02-11T07:38:44;21.10;50.40
909;DHT22;441;51.192;6.788;2023-02-11T07:41:13;21.20;49.80
909;DHT22;441;51.192;6.788;2023-02-11T07:43:41;21.20;49.60
909;DHT22;441;51.192;6.788;2023-02-11T07:46:10;21.30;50.10
909;DHT22;441;51.192;6.788;2023-02-11T07:48:38;21.30;50.10
909;DHT22;441;51.192;6.788;2023-02-11T07:51:07;21.30;49.50
909;DHT22;441;51.192;6.788;2023-02-11T07:53:35;21.40;49.60
909;DHT22;441;51.192;6.788;2023-02-11T07:56:03;21.40;50.10
909;DHT22;441;51.192;6.788;2023-02-11T07:58:31;21.40;49.50
909;DHT22;441;51.192;6.788;2023-02-11T08:01:02;21.40;49.10
909;DHT22;441;51.192;6.788;2023-02-11T08:03:29;21.40;49.00
909;DHT22;441;51.192;6.788;2023-02-11T08:05:57;21.40;48.80
909;DHT22;441;51.192;6.788;2023-02-11T08:08:25;21.40;48.80
909;DHT22;441;51.192;6.788;2023-02-11T08:10:52;21.30;48.60
909;DHT22;441;51.192;6.788;2023-02-11T08:13:19;21.20;48.50
909;DHT22;441;51.192;6.788;2023-02-11T08:15:46;21.20;48.50
909;DHT22;441;51.192;6.788;2023-02-11T08:18:13;21.20;48.50
909;DHT22;441;51.192;6.788;2023-02-11T08:20:40;21.20;48.50
909;DHT22;441;51.192;6.788;2023-02-11T08:23:08;21.10;48.50
909;DHT22;441;51.192;6.788;2023-02-11T08:25:35;21.10;48.50
909;DHT22;441;51.192;6.788;2023-02-11T08:28:02;21.10;48.50
909;DHT22;441;51.192;6.788;2023-02-11T08:30:28;21.00;48.40
909;DHT22;441;51.192;6.788;2023-02-11T08:32:55;21.00;48.50
909;DHT22;441;51.192;6.788;2023-02-11T08:35:22;21.00;48.50
909;DHT22;441;51.192;6.788;2023-02-11T08:37:50;20.90;49.20
909;DHT22;441;51.192;6.788;2023-02-11T08:40:19;20.90;49.30
909;DHT22;441;51.192;6.788;2023-02-11T08:42:46;20.90;49.40
909;DHT22;441;51.192;6.788;2023-02-11T08:45:13;21.00;49.60
909;DHT22;441;51.192;6.788;2023-02-11T08:47:39;21.00;49.70
909;DHT22;441;51.192;6.788;2023-02-11T08:50:07;21.00;49.90
909;DHT22;441;51.192;6.788;2023-02-11T08:52:35;21.00;49.80
909;DHT22;441;51.192;6.788;2023-02-11T08:55:02;21.00;49.80
909;DHT22;441;51.192;6.788;2023-02-11T08:57:30;21.10;49.60
909;DHT22;441;51.192;6.788;2023-02-11T08:59:57;21.20;49.60
909;DHT22;441;51.192;6.788;2023-02-11T09:02:24;21.20;49.70
909;DHT22;441;51.192;6.788;2023-02-11T09:04:51;21.20;49.40
909;DHT22;441;51.192;6.788;2023-02-11T09:07:18;21.20;49.30
909;DHT22;441;51.192;6.788;2023-02-11T09:09:45;21.20;49.60
909;DHT22;441;51.192;6.788;2023-02-11T09:12:13;21.20;49.80
909;DHT22;441;51.192;6.788;2023-02-11T09:14:41;21.10;49.80
909;DHT22;441;51.192;6.788;2023-02-11T09:17:08;21.10;49.80
909;DHT22;441;51.192;6.788;2023-02-11T09:19:35;21.10;49.90
909;DHT22;441;51.192;6.788;2023-02-11T09:22:02;21.10;49.80
909;DHT22;441;51.192;6.788;2023-02-11T09:24:29;21.20;49.80
909;DHT22;441;51.192;6.788;2023-02-11T09:26:55;21.20;49.70
909;DHT22;441;51.192;6.788;2023-02-11T09:29:22;21.20;49.80
909;DHT22;441;51.192;6.788;2023-02-11T09:31:50;21.30;49.50
909;DHT22;441;51.192;6.788;2023-02-11T09:34:17;21.40;49.70
909;DHT22;441;51.192;6.788;2023-02-11T09:36:44;21.40;49.00
909;DHT22;441;51.192;6.788;2023-02-11T09:39:14;21.40;48.90
909;DHT22;441;51.192;6.788;2023-02-11T09:41:58;21.50;48.90
909;DHT22;441;51.192;6.788;2023-02-11T09:44:30;21.50;48.90
909;DHT22;441;51.192;6.788;2023-02-11T09:47:00;21.50;48.80
909;DHT22;441;51.192;6.788;2023-02-11T09:49:33;21.40;48.70
909;DHT22;441;51.192;6.788;2023-02-11T09:52:05;21.50;48.80
909;DHT22;441;51.192;6.788;2023-02-11T09:54:35;21.50;48.70
909;DHT22;441;51.192;6.788;2023-02-11T09:57:03;21.50;48.70
909;DHT22;441;51.192;6.788;2023-02-11T09:59:30;21.50;48.70
909;DHT22;441;51.192;6.788;2023-02-11T10:02:03;21.50;48.70
909;DHT22;441;51.192;6.788;2023-02-11T10:04:56;21.50;48.70
909;DHT22;441;51.192;6.788;2023-02-11T10:07:32;21.50;49.30
909;DHT22;441;51.192;6.788;2023-02-11T10:10:12;21.50;49.10
909;DHT22;441;51.192;6.788;2023-02-11T10:12:56;21.40;48.90
909;DHT22;441;51.192;6.788;2023-02-11T10:15:35;21.50;48.90
909;DHT22;441;51.192;6.788;2023-02-11T10:18:17;21.50;49.20
909;DHT22;441;51.192;6.788;2023-02-11T10:20:56;21.50;49.20
909;DHT22;441;51.192;6.788;2023-02-11T10:23:32;21.50;49.20
909;DHT22;441;51.192;6.788;2023-02-11T10:26:00;21.60;49.20
909;DHT22;441;51.192;6.788;2023-02-11T10:28:29;21.70;49.10
909;DHT22;441;51.192;6.788;2023-02-11T10:31:00;21.70;49.10
909;DHT22;441;51.192;6.788;2023-02-11T10:33:35;21.70;49.00
909;DHT22;441;51.192;6.788;2023-02-11T10:36:03;21.80;49.00
909;DHT22;441;51.192;6.788;2023-02-11T10:38:30;21.90;49.00
909;DHT22;441;51.192;6.788;2023-02-11T10:40:57;21.90;48.90
909;DHT22;441;51.192;6.788;2023-02-11T10:43:26;21.90;48.80
909;DHT22;441;51.192;6.788;2023-02-11T10:45:55;21.90;48.80
909;DHT22;441;51.192;6.788;2023-02-11T10:48:38;22.00;48.70
909;DHT22;441;51.192;6.788;2023-02-11T10:51:07;22.10;48.70
909;DHT22;441;51.192;6.788;2023-02-11T10:53:34;22.10;48.70
909;DHT22;441;51.192;6.788;2023-02-11T10:56:02;22.10;48.60
909;DHT22;441;51.192;6.788;2023-02-11T10:58:31;22.10;48.50
909;DHT22;441;51.192;6.788;2023-02-11T11:01:02;22.10;48.60
909;DHT22;441;51.192;6.788;2023-02-11T11:03:33;22.10;48.40
909;DHT22;441;51.192;6.788;2023-02-11T11:06:04;22.20;48.40
909;DHT22;441;51.192;6.788;2023-02-11T11:08:39;22.20;48.40
909;DHT22;441;51.192;6.788;2023-02-11T11:11:09;22.20;48.50
909;DHT22;441;51.192;6.788;2023-02-11T11:13:38;22.20;48.40
909;DHT22;441;51.192;6.788;2023-02-11T11:16:08;22.20;48.40
909;DHT22;441;51.192;6.788;2023-02-11T11:18:35;22.20;48.30
909;DHT22;441;51.192;6.788;2023-02-11T11:21:05;22.20;48.20
909;DHT22;441;51.192;6.788;2023-02-11T11:23:34;22.20;48.10
909;DHT22;441;51.192;6.788;2023-02-11T11:26:04;22.30;48.70
909;DHT22;441;51.192;6.788;2023-02-11T11:28:36;22.30;48.10
909;DHT22;441;51.192;6.788;2023-02-11T11:31:05;22.30;49.20
909;DHT22;441;51.192;6.788;2023-02-11T11:33:40;22.30;49.20
909;DHT22;441;51.192;6.788;2023-02-11T11:36:11;22.30;49.00
909;DHT22;441;51.192;6.788;2023-02-11T11:38:43;22.30;49.20
909;DHT22;441;51.192;6.788;2023-02-11T11:41:23;22.40;49.30
909;DHT22;441;51.192;6.788;2023-02-11T11:43:55;22.30;48.90
909;DHT22;441;51.192;6.788;2023-02-11T11:46:23;22.20;47.80
909;DHT22;441;51.192;6.788;2023-02-11T11:48:53;22.10;47.70
909;DHT22;441;51.192;6.788;2023-02-11T11:51:23;22.10;49.10
909;DHT22;441;51.192;6.788;2023-02-11T11:53:55;22.20;48.90
909;DHT22;441;51.192;6.788;2023-02-11T11:56:25;22.20;48.80
909;DHT22;441;51.192;6.788;2023-02-11T11:58:53;22.20;48.70
909;DHT22;441;51.192;6.788;2023-02-11T12:01:30;22.30;48.60
909;DHT22;441;51.192;6.788;2023-02-11T12:04:17;22.30;48.60
909;DHT22;441;51.192;6.788;2023-02-11T12:07:06;22.40;48.50
909;DHT22;441;51.192;6.788;2023-02-11T12:09:47;22.40;48.50
909;DHT22;441;51.192;6.788;2023-02-11T12:12:31;22.40;48.50
909;DHT22;441;51.192;6.788;2023-02-11T12:15:14;22.40;48.40
909;DHT22;441;51.192;6.788;2023-02-11T12:17:56;22.50;48.80
909;DHT22;441;51.192;6.788;2023-02-11T12:20:31;22.50;48.50
909;DHT22;441;51.192;6.788;2023-02-11T12:23:19;22.50;48.20
909;DHT22;441;51.192;6.788;2023-02-11T12:25:54;22.50;48.10
909;DHT22;441;51.192;6.788;2023-02-11T12:28:30;22.50;48.00
909;DHT22;441;51.192;6.788;2023-02-11T12:31:09;22.50;47.90
909;DHT22;441;51.192;6.788;2023-02-11T12:33:49;22.60;47.90
909;DHT22;441;51.192;6.788;2023-02-11T12:36:31;22.60;47.80
909;DHT22;441;51.192;6.788;2023-02-11T12:39:12;22.60;47.80
909;DHT22;441;51.192;6.788;2023-02-11T12:42:03;22.60;47.70
909;DHT22;441;51.192;6.788;2023-02-11T12:45:04;22.50;47.50
909;DHT22;441;51.192;6.788;2023-02-11T12:47:44;22.40;48.30
909;DHT22;441;51.192;6.788;2023-02-11T12:50:21;22.50;48.30
909;DHT22;441;51.192;6.788;2023-02-11T12:53:02;22.50;48.30
909;DHT22;441;51.192;6.788;2023-02-11T12:55:41;22.40;48.20
909;DHT22;441;51.192;6.788;2023-02-11T12:58:13;22.40;48.40
909;DHT22;441;51.192;6.788;2023-02-11T13:00:45;22.40;48.40
909;DHT22;441;51.192;6.788;2023-02-11T13:03:17;22.30;48.30
909;DHT22;441;51.192;6.788;2023-02-11T13:05:47;22.30;48.70
909;DHT22;441;51.192;6.788;2023-02-11T13:08:18;22.20;48.80
909;DHT22;441;51.192;6.788;2023-02-11T13:10:51;22.20;49.00
909;DHT22;441;51.192;6.788;2023-02-11T13:13:22;22.20;49.10
909;DHT22;441;51.192;6.788;2023-02-11T13:15:54;22.20;49.10
909;DHT22;441;51.192;6.788;2023-02-11T13:18:44;22.20;49.10
909;DHT22;441;51.192;6.788;2023-02-11T13:21:25;22.20;49.20
909;DHT22;441;51.192;6.788;2023-02-11T13:24:01;22.20;49.20
909;DHT22;441;51.192;6.788;2023-02-11T13:26:38;22.40;49.50
909;DHT22;441;51.192;6.788;2023-02-11T13:29:15;22.40;49.20
909;DHT22;441;51.192;6.788;2023-02-11T13:31:52;22.50;49.10
909;DHT22;441;51.192;6.788;2023-02-11T13:34:23;22.50;49.10
909;DHT22;441;51.192;6.788;2023-02-11T13:36:54;22.50;49.20
909;DHT22;441;51.192;6.788;2023-02-11T13:39:21;22.50;49.70
909;DHT22;441;51.192;6.788;2023-02-11T13:41:50;22.50;49.00
909;DHT22;441;51.192;6.788;2023-02-11T13:44:27;22.50;49.00
909;DHT22;441;51.192;6.788;2023-02-11T13:46:57;22.60;49.00
909;DHT22;441;51.192;6.788;2023-02-11T13:49:28;22.60;49.10
909;DHT22;441;51.192;6.788;2023-02-11T13:51:57;22.60;48.90
909;DHT22;441;51.192;6.788;2023-02-11T13:54:29;22.60;48.80
909;DHT22;441;51.192;6.788;2023-02-11T13:57:35;22.60;48.80
909;DHT22;441;51.192;6.788;2023-02-11T14:03:31;22.60;48.80
909;DHT22;441;51.192;6.788;2023-02-11T14:06:26;22.60;48.70
909;DHT22;441;51.192;6.788;2023-02-11T14:09:34;22.60;48.70
909;DHT22;441;51.192;6.788;2023-02-11T14:12:23;22.70;48.50
909;DHT22;441;51.192;6.788;2023-02-11T14:14:58;22.70;48.20
909;DHT22;441;51.192;6.788;2023-02-11T14:17:32;22.70;48.20
909;DHT22;441;51.192;6.788;2023-02-11T14:20:02;22.70;48.10
909;DHT22;441;51.192;6.788;2023-02-11T14:22:39;22.70;48.10
909;DHT22;441;51.192;6.788;2023-02-11T14:25:17;22.70;48.10
909;DHT22;441;51.192;6.788;2023-02-11T14:27:51;22.70;48.00
909;DHT22;441;51.192;6.788;2023-02-11T14:30:28;22.70;48.00
909;DHT22;441;51.192;6.788;2023-02-11T14:33:18;22.70;48.00
909;DHT22;441;51.192;6.788;2023-02-11T14:36:04;22.70;48.00
909;DHT22;441;51.192;6.788;2023-02-11T14:38:42;22.70;48.00
909;DHT22;441;51.192;6.788;2023-02-11T14:41:18;22.70;48.00
909;DHT22;441;51.192;6.788;2023-02-11T14:43:50;22.70;48.00
909;DHT22;441;51.192;6.788;2023-02-11T14:46:19;22.70;48.00
909;DHT22;441;51.192;6.788;2023-02-11T14:48:48;22.70;48.00
909;DHT22;441;51.192;6.788;2023-02-11T14:51:19;22.70;48.00
909;DHT22;441;51.192;6.788;2023-02-11T14:53:49;22.70;48.00
909;DHT22;441;51.192;6.788;2023-02-11T14:56:20;22.70;48.00
909;DHT22;441;51.192;6.788;2023-02-11T14:58:49;22.70;47.90
909;DHT22;441;51.192;6.788;2023-02-11T15:01:29;22.80;48.70
909;DHT22;441;51.192;6.788;2023-02-11T15:03:56;22.80;49.00
909;DHT22;441;51.192;6.788;2023-02-11T15:06:29;22.80;48.60
909;DHT22;441;51.192;6.788;2023-02-11T15:08:59;22.80;48.40
909;DHT22;441;51.192;6.788;2023-02-11T15:11:28;22.70;48.30
909;DHT22;441;51.192;6.788;2023-02-11T15:14:05;22.80;49.00
909;DHT22;441;51.192;6.788;2023-02-11T15:16:33;22.80;48.80
909;DHT22;441;51.192;6.788;2023-02-11T15:19:02;22.80;48.50
909;DHT22;441;51.192;6.788;2023-02-11T15:21:31;22.80;48.90
909;DHT22;441;51.192;6.788;2023-02-11T15:24:01;22.90;48.50
909;DHT22;441;51.192;6.788;2023-02-11T15:26:30;22.90;49.10
909;DHT22;441;51.192;6.788;2023-02-11T15:28:59;22.90;48.90
909;DHT22;441;51.192;6.788;2023-02-11T15:31:27;22.90;48.50
909;DHT22;441;51.192;6.788;2023-02-11T15:33:54;22.90;48.40
909;DHT22;441;51.192;6.788;2023-02-11T15:36:23;22.90;48.20
909;DHT22;441;51.192;6.788;2023-02-11T15:39:17;22.90;48.20
909;DHT22;441;51.192;6.788;2023-02-11T15:41:45;22.90;48.40
909;DHT22;441;51.192;6.788;2023-02-11T15:44:31;22.90;48.30
909;DHT22;441;51.192;6.788;2023-02-11T15:46:58;22.90;48.30
909;DHT22;441;51.192;6.788;2023-02-11T15:49:25;22.90;48.40
909;DHT22;441;51.192;6.788;2023-02-11T15:51:53;22.90;48.30
909;DHT22;441;51.192;6.788;2023-02-11T15:54:23;22.90;48.20
909;DHT22;441;51.192;6.788;2023-02-11T15:56:53;22.90;48.30
909;DHT22;441;51.192;6.788;2023-02-11T15:59:26;22.90;48.30
909;DHT22;441;51.192;6.788;2023-02-11T16:01:57;22.90;48.30
909;DHT22;441;51.192;6.788;2023-02-11T16:04:25;22.90;48.40
909;DHT22;441;51.192;6.788;2023-02-11T16:06:54;22.70;48.20
909;DHT22;441;51.192;6.788;2023-02-11T16:09:24;22.60;48.30
909;DHT22;441;51.192;6.788;2023-02-11T16:11:55;22.60;48.50
909;DHT22;441;51.192;6.788;2023-02-11T16:14:29;22.50;48.70
909;DHT22;441;51.192;6.788;2023-02-11T16:17:01;22.50;48.80
909;DHT22;441;51.192;6.788;2023-02-11T16:19:29;22.50;48.90
909;DHT22;441;51.192;6.788;2023-02-11T16:21:59;22.50;49.10
909;DHT22;441;51.192;6.788;2023-02-11T16:24:29;22.40;49.10
909;DHT22;441;51.192;6.788;2023-02-11T16:26:59;22.40;49.10
909;DHT22;441;51.192;6.788;2023-02-11T16:29:28;22.30;49.20
909;DHT22;441;51.192;6.788;2023-02-11T16:32:06;22.20;49.30
909;DHT22;441;51.192;6.788;2023-02-11T16:34:34;22.00;49.00
909;DHT22;441;51.192;6.788;2023-02-11T16:37:03;22.00;49.10
909;DHT22;441;51.192;6.788;2023-02-11T16:39:31;22.00;50.40
909;DHT22;441;51.192;6.788;2023-02-11T16:41:58;22.10;50.80
909;DHT22;441;51.192;6.788;2023-02-11T16:44:25;22.20;51.10
909;DHT22;441;51.192;6.788;2023-02-11T16:46:52;22.20;51.20
909;DHT22;441;51.192;6.788;2023-02-11T16:49:24;22.20;51.10
909;DHT22;441;51.192;6.788;2023-02-11T16:51:53;22.20;51.40
909;DHT22;441;51.192;6.788;2023-02-11T16:54:22;22.20;51.20
909;DHT22;441;51.192;6.788;2023-02-11T16:56:49;22.10;51.30
909;DHT22;441;51.192;6.788;2023-02-11T16:59:16;22.10;52.50
909;DHT22;441;51.192;6.788;2023-02-11T17:01:44;22.10;53.90
909;DHT22;441;51.192;6.788;2023-02-11T17:04:16;22.00;54.50
909;DHT22;441;51.192;6.788;2023-02-11T17:06:45;21.80;53.00